Airfield :
LOGIN :

Register | Disclaimer

   EN    FR    IT 

 










Legend :    VFR   Marginal VFR   IFR   Intensive IFR   Very Intensive IFR
Visi :
Ceiling :
>= 8 km
>= 3000ft
5 to 8 km
1000 to 3000 ft
1500m to 5 km
500 to 1000 ft
800 to 1500m
200 to 500 ft
< 800m
< 200 ft
Symbols :   Thunderstorms  Fog  Heavy snow  Heavy precipitations  Wind > 20 kt
SIGMETs :     Misc.  Thunderstorms  Icing  Turbulence  Mountain Waves  Volcanic Ashes






- Airport Elevation : 160 ft
- IATA code : LRT


LFRH - Lorient Lann Bihoue

CURRENT METAR :
  • 170000Z AUTO VRB01KT 8000 NSC 04/03 Q1009 TEMPO 4000 BR

EXPIRED METARs :
  • 162330Z AUTO 36003KT 7000 NSC 03/03 Q1009 TEMPO 4000 BR
  • 162300Z AUTO VRB02KT 6000 NSC 03/03 Q1009 TEMPO 3000 BR
  • 162230Z AUTO VRB02KT 9000 NSC 04/03 Q1009 TEMPO 3000 BR
  • 162200Z AUTO 32004KT 9999 FEW031 BKN210 OVC240 03/02 Q1009 TEMPO 3000 BR
  • 162130Z AUTO 32004KT 9999 BKN031 BKN210 04/03 Q1009 TEMPO 3000 BR

TAF TAF LFRH
Valid from the 17 at 00:00 until the 18 at 00:00 UTC


162300Z 1700/1724 36003KT 9999 SCT030
PROB30
TEMPO 1700/1702 4000 BR
BECMG 1702/1704 06005KT BKN010
TEMPO 1707/1712 BKN005
BECMG 1712/1714 VRB02KT CAVOK
TEMPO 1714/1718 01005G15KT 4500 SHRA SCT020TCU
BECMG 1718/1720 SCT012
PROB30
TEMPO 1722/1724 3000 BR



MET'MAP, your aeronautical weather chart ! - Copyright ORBIFLY December 2007 - Disclaimer

ORBIFLY MET'MAP TEAM :

Programming & Development : Alexandra Zaïnal
Concept & Development : Baudouin d'Aumeries
Co-Development & Prog : Marc-Olivier Méhu
Technical & hardware support : Manuel Goepfert

Contact : metmap@orbifly.com




SOURCES & CREDITS :

   NOAA